createdAt,value
2018-09-28T00:01:33.281Z,101984.00
2018-09-28T00:04:03.301Z,101988.00
2018-09-28T00:06:33.311Z,101986.00
2018-09-28T00:09:03.571Z,101988.00
2018-09-28T00:11:36.830Z,101990.00
2018-09-28T00:14:06.412Z,101989.00
2018-09-28T00:16:35.727Z,101998.00
2018-09-28T00:19:05.128Z,102003.00
2018-09-28T00:21:34.644Z,102008.00
2018-09-28T00:24:03.985Z,102008.00
2018-09-28T00:26:33.353Z,102009.00
2018-09-28T00:29:03.239Z,102010.00
2018-09-28T00:31:33.255Z,102013.00
2018-09-28T00:34:03.293Z,102018.00
2018-09-28T00:36:33.348Z,102024.00
2018-09-28T00:39:03.336Z,102015.00
2018-09-28T00:41:33.280Z,102022.00
2018-09-28T00:44:03.435Z,102025.00
2018-09-28T00:46:33.280Z,102031.00
2018-09-28T00:49:03.510Z,102030.00
2018-09-28T00:51:33.353Z,102032.00
2018-09-28T00:54:03.242Z,102040.00
2018-09-28T00:56:33.337Z,102041.00
2018-09-28T00:59:03.399Z,102038.00
2018-09-28T01:01:37.945Z,102044.00
2018-09-28T01:04:07.447Z,102038.00
2018-09-28T01:06:36.826Z,102042.00
2018-09-28T01:09:09.932Z,102042.00
2018-09-28T01:11:39.947Z,102048.00
2018-09-28T01:14:09.385Z,102041.00
2018-09-28T01:16:38.705Z,102043.00
2018-09-28T01:19:08.394Z,102040.00
2018-09-28T01:21:37.802Z,102053.00
2018-09-28T01:24:07.215Z,102058.00
2018-09-28T01:26:36.585Z,102058.00
2018-09-28T01:29:05.906Z,102062.00
2018-09-28T01:31:35.265Z,102058.00
2018-09-28T01:34:04.694Z,102062.00
2018-09-28T01:36:34.063Z,102064.00
2018-09-28T01:39:03.826Z,102064.00
2018-09-28T01:41:33.407Z,102060.00
2018-09-28T01:44:03.447Z,102064.00
2018-09-28T01:46:33.459Z,102062.00
2018-09-28T01:49:03.450Z,102064.00
2018-09-28T01:51:33.399Z,102069.00
2018-09-28T01:54:03.489Z,102064.00
2018-09-28T01:56:33.411Z,102067.00
2018-09-28T01:59:03.396Z,102070.00
2018-09-28T02:01:33.468Z,102072.00
2018-09-28T02:04:03.474Z,102078.00
2018-09-28T02:06:33.444Z,102072.00
2018-09-28T02:09:03.705Z,102077.00
2018-09-28T02:11:33.535Z,102079.00
2018-09-28T02:14:03.464Z,102082.00
2018-09-28T02:16:33.479Z,102078.00
2018-09-28T02:21:57.208Z,102081.00
2018-09-28T02:24:26.559Z,102085.00
2018-09-28T02:26:55.923Z,102089.00
2018-09-28T02:29:25.316Z,102085.00
2018-09-28T02:31:54.660Z,102088.00
2018-09-28T02:34:24.088Z,102095.00
2018-09-28T02:36:53.603Z,102097.00
2018-09-28T02:39:22.964Z,102095.00
2018-09-28T02:41:52.324Z,102108.00
2018-09-28T02:44:21.693Z,102104.00
2018-09-28T02:46:51.011Z,102106.00
2018-09-28T02:49:20.383Z,102101.00
2018-09-28T02:51:49.796Z,102110.00
2018-09-28T02:54:19.196Z,102113.00
2018-09-28T02:56:48.563Z,102118.00
2018-09-28T02:59:17.932Z,102118.00
2018-09-28T03:01:47.407Z,102125.00
2018-09-28T03:04:16.831Z,102122.00
2018-09-28T03:06:46.186Z,102115.00
2018-09-28T03:09:15.560Z,102125.00
2018-09-28T03:11:44.899Z,102125.00
2018-09-28T03:14:14.295Z,102128.00
2018-09-28T03:16:43.620Z,102125.00
2018-09-28T03:19:12.992Z,102133.00
2018-09-28T03:21:42.360Z,102138.00
2018-09-28T03:24:11.680Z,102136.00
2018-09-28T03:26:41.043Z,102137.00
2018-09-28T03:29:10.499Z,102144.00
2018-09-28T03:31:39.863Z,102149.00
2018-09-28T03:34:09.224Z,102151.00
2018-09-28T03:36:38.575Z,102148.00
2018-09-28T03:39:08.601Z,102156.00
2018-09-28T03:41:38.026Z,102157.00
2018-09-28T03:44:07.426Z,102154.00
2018-09-28T03:46:36.815Z,102159.00
2018-09-28T03:49:06.207Z,102163.00
2018-09-28T03:51:35.591Z,102162.00
2018-09-28T03:54:04.992Z,102168.00
2018-09-28T03:56:34.335Z,102177.00
2018-09-28T03:59:03.707Z,102181.00
2018-09-28T04:01:33.770Z,102183.00
2018-09-28T04:04:03.703Z,102186.00
2018-09-28T04:06:33.718Z,102187.00
2018-09-28T04:09:04.818Z,102184.00
2018-09-28T04:11:34.151Z,102187.00
2018-09-28T04:14:03.794Z,102201.00
2018-09-28T04:16:33.809Z,102200.00
2018-09-28T04:19:03.811Z,102205.00
2018-09-28T04:21:33.767Z,102208.00
2018-09-28T04:24:03.706Z,102215.00
2018-09-28T04:26:33.773Z,102217.00
2018-09-28T04:29:03.778Z,102223.00
2018-09-28T04:31:33.790Z,102224.00
2018-09-28T04:34:03.728Z,102222.00
2018-09-28T04:36:33.756Z,102234.00
2018-09-28T04:39:04.652Z,102232.00
2018-09-28T04:41:34.029Z,102236.00
2018-09-28T04:44:03.846Z,102239.00
2018-09-28T04:46:33.830Z,102246.00
2018-09-28T04:49:03.834Z,102250.00
2018-09-28T04:51:34.087Z,102255.00
2018-09-28T04:54:03.800Z,102257.00
2018-09-28T04:56:33.785Z,102261.00
2018-09-28T04:59:03.860Z,102271.00
2018-09-28T05:01:33.983Z,102269.00
2018-09-28T05:04:04.101Z,102265.00
2018-09-28T05:06:33.806Z,102267.00
2018-09-28T05:09:05.277Z,102272.00
2018-09-28T05:11:34.710Z,102272.00
2018-09-28T05:14:04.141Z,102279.00
2018-09-28T05:16:33.894Z,102279.00
2018-09-28T05:19:03.900Z,102279.00
2018-09-28T05:21:33.982Z,102284.00
2018-09-28T05:24:03.875Z,102284.00
2018-09-28T05:26:33.876Z,102287.00
2018-09-28T05:29:03.916Z,102291.00
2018-09-28T05:31:34.000Z,102295.00
2018-09-28T05:34:03.949Z,102297.00
2018-09-28T05:36:33.891Z,102303.00
2018-09-28T05:39:05.272Z,102304.00
2018-09-28T05:41:34.673Z,102317.00
2018-09-28T05:44:04.156Z,102313.00
2018-09-28T05:46:33.956Z,102308.00
2018-09-28T05:49:03.904Z,102313.00
2018-09-28T05:51:33.941Z,102315.00
2018-09-28T05:54:03.916Z,102325.00
2018-09-28T05:56:33.946Z,102314.00
2018-09-28T06:01:49.267Z,102330.00
2018-09-28T06:04:23.998Z,102333.00
2018-09-28T06:06:53.433Z,102336.00
2018-09-28T06:09:22.838Z,102334.00
2018-09-28T06:11:52.210Z,102342.00
2018-09-28T06:14:21.723Z,102339.00
2018-09-28T06:16:51.108Z,102348.00
2018-09-28T06:19:20.529Z,102350.00
2018-09-28T06:21:49.942Z,102348.00
2018-09-28T06:24:19.316Z,102349.00
2018-09-28T06:26:48.700Z,102360.00
2018-09-28T06:29:18.019Z,102360.00
2018-09-28T06:31:47.444Z,102362.00
2018-09-28T06:34:17.214Z,102365.00
2018-09-28T06:36:46.564Z,102364.00
2018-09-28T06:39:15.994Z,102374.00
2018-09-28T06:41:45.417Z,102375.00
2018-09-28T06:44:14.773Z,102376.00
2018-09-28T06:46:44.284Z,102377.00
2018-09-28T06:49:13.650Z,102375.00
2018-09-28T06:51:43.008Z,102381.00
2018-09-28T06:54:12.431Z,102386.00
2018-09-28T06:56:47.593Z,102384.00
2018-09-28T06:59:17.153Z,102391.00
2018-09-28T07:01:46.578Z,102398.00
2018-09-28T07:04:15.988Z,102400.00
2018-09-28T07:06:45.349Z,102411.00
2018-09-28T07:09:14.741Z,102411.00
2018-09-28T07:11:44.206Z,102414.00
2018-09-28T07:14:13.570Z,102420.00
2018-09-28T07:16:43.097Z,102424.00
2018-09-28T07:19:12.433Z,102426.00
2018-09-28T07:21:41.767Z,102429.00
2018-09-28T07:24:11.167Z,102430.00
2018-09-28T07:26:40.543Z,102435.00
2018-09-28T07:29:09.919Z,102437.00
2018-09-28T07:31:39.355Z,102443.00
2018-09-28T07:34:08.845Z,102447.00
2018-09-28T07:36:38.375Z,102445.00
2018-09-28T07:39:10.930Z,102454.00
2018-09-28T07:41:40.382Z,102450.00
2018-09-28T07:44:09.943Z,102456.00
2018-09-28T07:46:39.381Z,102454.00
2018-09-28T07:49:08.807Z,102460.00
2018-09-28T07:51:38.265Z,102461.00
2018-09-28T07:54:07.775Z,102468.00
2018-09-28T07:56:37.226Z,102467.00
2018-09-28T07:59:06.630Z,102479.00
2018-09-28T08:01:36.063Z,102482.00
2018-09-28T08:04:05.565Z,102484.00
2018-09-28T08:06:34.861Z,102486.00
2018-09-28T08:09:05.866Z,102488.00
2018-09-28T08:11:35.352Z,102484.00
2018-09-28T08:14:04.671Z,102484.00
2018-09-28T08:16:34.182Z,102497.00
2018-09-28T08:19:04.235Z,102497.00
2018-09-28T08:21:34.155Z,102503.00
2018-09-28T08:24:04.226Z,102500.00
2018-09-28T08:29:43.125Z,102512.00
2018-09-28T08:32:12.773Z,102513.00
2018-09-28T08:34:42.125Z,102516.00
2018-09-28T08:37:11.461Z,102525.00
2018-09-28T08:39:43.841Z,102521.00
2018-09-28T08:45:14.499Z,102531.00
2018-09-28T08:47:44.226Z,102533.00
2018-09-28T08:50:13.550Z,102532.00
2018-09-28T08:52:49.168Z,102525.00
2018-09-28T08:55:22.200Z,102520.00
2018-09-28T08:57:51.707Z,102524.00
2018-09-28T09:00:21.139Z,102534.00
2018-09-28T09:02:50.488Z,102536.00
2018-09-28T09:05:19.796Z,102537.00
2018-09-28T09:07:49.157Z,102541.00
2018-09-28T09:10:18.493Z,102539.00
2018-09-28T09:12:47.847Z,102541.00
2018-09-28T09:15:17.198Z,102545.00
2018-09-28T09:17:46.622Z,102550.00
2018-09-28T09:20:15.931Z,102560.00
2018-09-28T09:22:45.244Z,102554.00
2018-09-28T09:25:14.703Z,102552.00
2018-09-28T09:27:44.039Z,102551.00
2018-09-28T09:30:13.410Z,102552.00
2018-09-28T09:32:42.748Z,102553.00
2018-09-28T09:35:12.096Z,102562.00
2018-09-28T09:37:41.462Z,102550.00
2018-09-28T09:40:10.887Z,102550.00
2018-09-28T09:42:40.286Z,102552.00
2018-09-28T09:45:09.606Z,102550.00
2018-09-28T09:47:38.933Z,102542.00
2018-09-28T09:50:08.283Z,102546.00
2018-09-28T09:52:37.643Z,102553.00
2018-09-28T09:55:07.591Z,102549.00
2018-09-28T09:57:36.992Z,102560.00
2018-09-28T10:00:06.433Z,102554.00
2018-09-28T10:02:40.890Z,102545.00
2018-09-28T10:05:10.237Z,102548.00
2018-09-28T10:07:39.555Z,102559.00
2018-09-28T10:10:08.934Z,102557.00
2018-09-28T10:12:38.385Z,102565.00
2018-09-28T10:15:07.704Z,102561.00
2018-09-28T10:17:37.112Z,102559.00
2018-09-28T10:20:06.510Z,102561.00
2018-09-28T10:22:35.848Z,102562.00
2018-09-28T10:25:05.225Z,102560.00
2018-09-28T10:27:34.693Z,102556.00
2018-09-28T10:30:03.984Z,102556.00
2018-09-28T10:32:33.322Z,102556.00
2018-09-28T10:35:02.677Z,102550.00
2018-09-28T10:37:32.018Z,102559.00
2018-09-28T10:40:01.343Z,102561.00
2018-09-28T10:42:30.748Z,102557.00
2018-09-28T10:45:00.057Z,102551.00
2018-09-28T10:47:29.413Z,102560.00
2018-09-28T10:49:58.672Z,102567.00
2018-09-28T10:52:28.023Z,102567.00
2018-09-28T10:54:57.275Z,102556.00
2018-09-28T10:57:26.649Z,102560.00
2018-09-28T10:59:55.907Z,102566.00
2018-09-28T11:02:25.181Z,102560.00
2018-09-28T11:04:54.488Z,102565.00
2018-09-28T11:07:23.782Z,102570.00
2018-09-28T11:09:53.203Z,102569.00
2018-09-28T11:12:22.515Z,102581.00
2018-09-28T11:14:51.821Z,102566.00
2018-09-28T11:17:21.114Z,102557.00
2018-09-28T11:19:50.429Z,102566.00
2018-09-28T11:22:19.717Z,102572.00
2018-09-28T11:24:49.067Z,102570.00
2018-09-28T11:27:18.415Z,102575.00
2018-09-28T11:29:47.712Z,102575.00
2018-09-28T11:32:17.027Z,102580.00
2018-09-28T11:34:46.370Z,102568.00
2018-09-28T11:37:15.818Z,102575.00
2018-09-28T11:39:45.248Z,102576.00
2018-09-28T11:42:14.534Z,102575.00
2018-09-28T11:44:43.858Z,102582.00
2018-09-28T11:47:13.165Z,102581.00
2018-09-28T11:49:42.560Z,102591.00
2018-09-28T11:52:11.887Z,102592.00
2018-09-28T11:54:41.746Z,102583.00
2018-09-28T11:57:11.816Z,102577.00
2018-09-28T11:59:41.924Z,102583.00
2018-09-28T12:02:11.878Z,102583.00
2018-09-28T12:04:41.852Z,102575.00
2018-09-28T12:07:11.915Z,102579.00
2018-09-28T12:09:42.031Z,102577.00
2018-09-28T12:12:11.864Z,102570.00
2018-09-28T12:14:41.850Z,102565.00
2018-09-28T12:17:11.927Z,102567.00
2018-09-28T12:19:41.829Z,102580.00
2018-09-28T12:22:11.931Z,102586.00
2018-09-28T12:24:41.867Z,102590.00
2018-09-28T12:27:12.048Z,102581.00
2018-09-28T12:29:41.886Z,102577.00
2018-09-28T12:32:11.894Z,102576.00
2018-09-28T12:34:41.864Z,102577.00
2018-09-28T12:37:11.940Z,102587.00
2018-09-28T12:39:41.979Z,102600.00
2018-09-28T12:42:12.037Z,102597.00
2018-09-28T12:44:41.913Z,102597.00
2018-09-28T12:47:11.926Z,102597.00
2018-09-28T12:49:41.972Z,102598.00
2018-09-28T12:52:12.070Z,102592.00
2018-09-28T12:54:41.937Z,102598.00
2018-09-28T12:57:11.920Z,102595.00
2018-09-28T12:59:41.938Z,102590.00
2018-09-28T13:02:12.047Z,102588.00
2018-09-28T13:04:41.979Z,102593.00
2018-09-28T13:07:12.039Z,102594.00
2018-09-28T13:09:42.023Z,102591.00
2018-09-28T13:12:12.143Z,102590.00
2018-09-28T13:14:42.163Z,102602.00
2018-09-28T13:17:12.015Z,102605.00
2018-09-28T13:19:41.995Z,102607.00
2018-09-28T13:22:12.186Z,102613.00
2018-09-28T13:24:42.148Z,102603.00
2018-09-28T13:27:12.087Z,102607.00
2018-09-28T13:29:42.117Z,102603.00
2018-09-28T13:32:12.155Z,102602.00
2018-09-28T13:34:41.990Z,102602.00
2018-09-28T13:37:12.060Z,102602.00
2018-09-28T13:39:42.102Z,102607.00
2018-09-28T13:42:12.086Z,102611.00
2018-09-28T13:44:42.155Z,102607.00
2018-09-28T13:47:12.069Z,102607.00
2018-09-28T13:49:42.051Z,102611.00
2018-09-28T13:52:12.082Z,102611.00
2018-09-28T13:54:42.204Z,102613.00
2018-09-28T13:57:12.178Z,102611.00
2018-09-28T13:59:42.194Z,102612.00
2018-09-28T14:02:12.123Z,102607.00
2018-09-28T14:04:42.170Z,102606.00
2018-09-28T14:07:12.301Z,102619.00
2018-09-28T14:09:42.055Z,102619.00
2018-09-28T14:12:12.207Z,102625.00
2018-09-28T14:14:42.200Z,102623.00
2018-09-28T14:17:12.187Z,102622.00
2018-09-28T14:19:42.138Z,102623.00
2018-09-28T14:22:12.383Z,102632.00
2018-09-28T14:24:42.300Z,102635.00
2018-09-28T14:27:12.188Z,102628.00
2018-09-28T14:29:42.082Z,102636.00
2018-09-28T14:32:12.153Z,102638.00
2018-09-28T14:34:42.295Z,102633.00
2018-09-28T14:37:12.232Z,102635.00
2018-09-28T14:39:42.138Z,102633.00
2018-09-28T14:42:12.219Z,102632.00
2018-09-28T14:44:42.193Z,102632.00
2018-09-28T14:47:12.153Z,102634.00
2018-09-28T14:49:42.277Z,102637.00
2018-09-28T14:52:12.291Z,102645.00
2018-09-28T14:54:48.952Z,102654.00
2018-09-28T14:57:18.264Z,102658.00
2018-09-28T14:59:47.569Z,102655.00
2018-09-28T15:02:16.873Z,102651.00
2018-09-28T15:04:46.293Z,102652.00
2018-09-28T15:07:15.595Z,102658.00
2018-09-28T15:09:44.854Z,102663.00
2018-09-28T15:12:14.209Z,102671.00
2018-09-28T15:14:43.567Z,102672.00
2018-09-28T15:17:12.892Z,102673.00
2018-09-28T15:19:42.851Z,102674.00
2018-09-28T15:22:12.739Z,102680.00
2018-09-28T15:24:42.719Z,102687.00
2018-09-28T15:27:12.800Z,102683.00
2018-09-28T15:29:42.879Z,102677.00
2018-09-28T15:32:12.819Z,102684.00
2018-09-28T15:34:42.839Z,102687.00
2018-09-28T15:37:19.225Z,102686.00
2018-09-28T15:39:48.791Z,102686.00
2018-09-28T15:42:18.271Z,102689.00
2018-09-28T15:44:47.816Z,102694.00
2018-09-28T15:47:17.125Z,102701.00
2018-09-28T15:49:53.965Z,102697.00
2018-09-28T15:52:23.473Z,102692.00
2018-09-28T15:54:52.791Z,102693.00
2018-09-28T15:57:22.118Z,102691.00
2018-09-28T15:59:51.470Z,102694.00
2018-09-28T16:02:20.800Z,102698.00
2018-09-28T16:04:50.135Z,102696.00
2018-09-28T16:07:19.473Z,102699.00
2018-09-28T16:09:48.839Z,102698.00
2018-09-28T16:12:18.761Z,102701.00
2018-09-28T16:14:48.062Z,102705.00
2018-09-28T16:17:17.378Z,102709.00
2018-09-28T16:19:46.796Z,102701.00
2018-09-28T16:22:16.115Z,102708.00
2018-09-28T16:24:45.462Z,102715.00
2018-09-28T16:27:14.750Z,102723.00
2018-09-28T16:29:44.199Z,102726.00
2018-09-28T16:32:13.501Z,102730.00
2018-09-28T16:34:42.815Z,102737.00
2018-09-28T16:37:12.166Z,102740.00
2018-09-28T16:39:41.492Z,102744.00
2018-09-28T16:42:10.782Z,102742.00
2018-09-28T16:44:40.069Z,102739.00
2018-09-28T16:47:09.410Z,102743.00
2018-09-28T16:49:38.686Z,102743.00
2018-09-28T16:52:08.043Z,102751.00
2018-09-28T16:54:37.382Z,102751.00
2018-09-28T16:57:06.749Z,102752.00
2018-09-28T16:59:36.026Z,102764.00
2018-09-28T17:02:05.486Z,102770.00
2018-09-28T17:04:34.848Z,102765.00
2018-09-28T17:07:04.224Z,102767.00
2018-09-28T17:09:33.599Z,102772.00
2018-09-28T17:12:02.963Z,102779.00
2018-09-28T17:14:32.331Z,102786.00
2018-09-28T17:17:01.951Z,102784.00
2018-09-28T17:19:31.297Z,102789.00
2018-09-28T17:22:00.629Z,102782.00
2018-09-28T17:24:29.958Z,102790.00
2018-09-28T17:26:59.302Z,102799.00
2018-09-28T17:29:28.685Z,102803.00
2018-09-28T17:31:58.017Z,102810.00
2018-09-28T17:34:27.491Z,102804.00
2018-09-28T17:36:59.959Z,102806.00
2018-09-28T17:39:29.430Z,102810.00
2018-09-28T17:41:58.690Z,102812.00
2018-09-28T17:44:28.061Z,102808.00
2018-09-28T17:46:57.729Z,102812.00
2018-09-28T17:49:27.519Z,102813.00
2018-09-28T17:51:57.531Z,102818.00
2018-09-28T17:54:27.754Z,102819.00
2018-09-28T17:56:57.569Z,102828.00
2018-09-28T17:59:27.527Z,102827.00
2018-09-28T18:01:57.531Z,102830.00
2018-09-28T18:04:27.640Z,102833.00
2018-09-28T18:06:57.568Z,102827.00
2018-09-28T18:09:27.631Z,102829.00
2018-09-28T18:11:57.595Z,102831.00
2018-09-28T18:14:27.592Z,102828.00
2018-09-28T18:16:57.558Z,102820.00
2018-09-28T18:19:27.551Z,102825.00
2018-09-28T18:21:57.642Z,102825.00
2018-09-28T18:24:27.535Z,102823.00
2018-09-28T18:26:57.627Z,102815.00
2018-09-28T18:29:27.589Z,102818.00
2018-09-28T18:31:57.793Z,102825.00
2018-09-28T18:34:27.761Z,102829.00
2018-09-28T18:36:57.551Z,102830.00
2018-09-28T18:39:27.698Z,102839.00
2018-09-28T18:41:57.852Z,102833.00
2018-09-28T18:44:27.615Z,102836.00
2018-09-28T18:46:57.649Z,102838.00
2018-09-28T18:49:28.738Z,102840.00
2018-09-28T18:51:58.069Z,102844.00
2018-09-28T18:54:27.865Z,102848.00
2018-09-28T18:56:57.721Z,102846.00
2018-09-28T18:59:27.641Z,102858.00
2018-09-28T19:01:57.658Z,102860.00
2018-09-28T19:04:27.658Z,102861.00
2018-09-28T19:06:57.710Z,102866.00
2018-09-28T19:09:27.706Z,102872.00
2018-09-28T19:11:57.786Z,102873.00
2018-09-28T19:14:27.830Z,102872.00
2018-09-28T19:16:57.674Z,102871.00
2018-09-28T19:19:27.709Z,102881.00
2018-09-28T19:21:57.675Z,102886.00
2018-09-28T19:24:27.641Z,102890.00
2018-09-28T19:26:57.769Z,102888.00
2018-09-28T19:29:27.651Z,102897.00
2018-09-28T19:31:57.674Z,102893.00
2018-09-28T19:34:27.863Z,102893.00
2018-09-28T19:36:57.757Z,102900.00
2018-09-28T19:39:27.804Z,102896.00
2018-09-28T19:41:57.694Z,102891.00
2018-09-28T19:44:27.727Z,102893.00
2018-09-28T19:46:57.778Z,102893.00
2018-09-28T19:49:27.782Z,102893.00
2018-09-28T19:51:57.740Z,102892.00
2018-09-28T19:54:27.767Z,102898.00
2018-09-28T19:56:57.833Z,102902.00
2018-09-28T19:59:27.731Z,102905.00
2018-09-28T20:01:57.786Z,102911.00
2018-09-28T20:04:27.770Z,102909.00
2018-09-28T20:06:57.764Z,102915.00
2018-09-28T20:09:27.777Z,102914.00
2018-09-28T20:11:57.915Z,102918.00
2018-09-28T20:14:27.711Z,102918.00
2018-09-28T20:16:57.815Z,102922.00
2018-09-28T20:19:27.763Z,102922.00
2018-09-28T20:21:57.788Z,102931.00
2018-09-28T20:24:27.855Z,102927.00
2018-09-28T20:26:57.769Z,102927.00
2018-09-28T20:29:27.804Z,102930.00
2018-09-28T20:31:57.857Z,102929.00
2018-09-28T20:34:27.790Z,102926.00
2018-09-28T20:36:57.990Z,102928.00
2018-09-28T20:39:27.751Z,102930.00
2018-09-28T20:41:57.878Z,102942.00
2018-09-28T20:44:27.791Z,102947.00
2018-09-28T20:46:57.769Z,102952.00
2018-09-28T20:49:27.823Z,102954.00
2018-09-28T20:51:57.885Z,102957.00
2018-09-28T20:54:27.812Z,102963.00
2018-09-28T20:56:58.287Z,102962.00
2018-09-28T20:59:27.781Z,102960.00
2018-09-28T21:01:57.808Z,102964.00
2018-09-28T21:04:28.023Z,102963.00
2018-09-28T21:06:57.887Z,102966.00
2018-09-28T21:09:27.868Z,102975.00
2018-09-28T21:11:57.954Z,102973.00
2018-09-28T21:14:27.838Z,102978.00
2018-09-28T21:16:57.875Z,102975.00
2018-09-28T21:19:27.928Z,102970.00
2018-09-28T21:21:57.918Z,102968.00
2018-09-28T21:24:27.896Z,102973.00
2018-09-28T21:26:57.837Z,102972.00
2018-09-28T21:29:27.867Z,102975.00
2018-09-28T21:31:57.902Z,102978.00
2018-09-28T21:34:27.856Z,102975.00
2018-09-28T21:36:57.919Z,102971.00
2018-09-28T21:39:27.905Z,102971.00
2018-09-28T21:41:57.905Z,102973.00
2018-09-28T21:44:27.905Z,102977.00
2018-09-28T21:46:57.871Z,102976.00
2018-09-28T21:49:27.981Z,102972.00
2018-09-28T21:51:57.974Z,102975.00
2018-09-28T21:54:27.882Z,102977.00
2018-09-28T21:56:58.154Z,102979.00
2018-09-28T21:59:27.976Z,102983.00
2018-09-28T22:01:57.951Z,102981.00
2018-09-28T22:04:27.970Z,102987.00
2018-09-28T22:06:57.980Z,102995.00
2018-09-28T22:09:28.002Z,102991.00
2018-09-28T22:11:58.050Z,102997.00
2018-09-28T22:14:28.036Z,102992.00
2018-09-28T22:16:58.003Z,102989.00
2018-09-28T22:19:28.030Z,102995.00
2018-09-28T22:21:57.926Z,102995.00
2018-09-28T22:24:28.015Z,102987.00
2018-09-28T22:26:58.037Z,102980.00
2018-09-28T22:29:28.080Z,102978.00
2018-09-28T22:31:58.020Z,102979.00
2018-09-28T22:34:27.929Z,102982.00
2018-09-28T22:36:58.009Z,102981.00
2018-09-28T22:39:28.097Z,102986.00
2018-09-28T22:41:58.049Z,102987.00
2018-09-28T22:44:28.080Z,102985.00
2018-09-28T22:46:58.138Z,102982.00
2018-09-28T22:49:28.030Z,102985.00
2018-09-28T22:51:58.018Z,102979.00
2018-09-28T22:54:28.057Z,102980.00
2018-09-28T22:56:58.111Z,102982.00
2018-09-28T22:59:28.333Z,102980.00
2018-09-28T23:01:58.128Z,102974.00
2018-09-28T23:04:28.052Z,102974.00
2018-09-28T23:06:58.090Z,102981.00
2018-09-28T23:09:28.009Z,102983.00
2018-09-28T23:11:58.103Z,102977.00
2018-09-28T23:14:28.042Z,102983.00
2018-09-28T23:16:58.035Z,102989.00
2018-09-28T23:19:28.121Z,102997.00
2018-09-28T23:21:58.077Z,102995.00
2018-09-28T23:24:28.107Z,102991.00
2018-09-28T23:26:58.053Z,102991.00
2018-09-28T23:29:28.132Z,102995.00
2018-09-28T23:31:58.232Z,102993.00
2018-09-28T23:34:28.186Z,102999.00
2018-09-28T23:36:58.082Z,103005.00
2018-09-28T23:39:28.171Z,103010.00
2018-09-28T23:41:58.150Z,103012.00
2018-09-28T23:44:28.223Z,103010.00
2018-09-28T23:46:58.127Z,103001.00
2018-09-28T23:49:28.248Z,103003.00
2018-09-28T23:51:58.139Z,103007.00
2018-09-28T23:54:28.132Z,103004.00
2018-09-28T23:56:58.153Z,103008.00
2018-09-28T23:59:28.203Z,103011.00
